Time;durP1;ratioP1;P1;durP2;ratioP2;P2;SDS_P1;SDS_P2;PMS_P1;PMS_P2;Temp;Humidity;BMP_temperature;BMP_pressure;BME280_temperature;BME280_humidity;BME280_pressure;Samples;Min_cycle;Max_cycle;Signal;HPM_P1;HPM_P2
2022/11/16 00:02:08;;;;;;;1.77;0.20;;;;;;;8.54;69.47;101436.41;5086281;28;20036;-65
2022/11/16 00:04:34;;;;;;;1.08;0.20;;;;;;;8.44;69.55;101420.53;5115836;28;20035;-65
2022/11/16 00:07:01;;;;;;;2.65;0.30;;;;;;;8.41;68.90;101436.94;5102714;28;20042;-65
2022/11/16 00:09:31;;;;;;;1.48;0.30;;;;;;;8.40;68.66;101429.06;5085021;28;20101;-66
2022/11/16 00:12:09;;;;;;;1.38;0.20;;;;;;;8.34;68.51;101424.34;5104468;28;20031;-65
2022/11/16 00:14:36;;;;;;;0.88;0.28;;;;;;;8.48;67.54;101434.44;5116800;28;20024;-67
2022/11/16 00:17:02;;;;;;;1.75;0.20;;;;;;;8.54;67.67;101439.09;5088405;28;20019;-65
2022/11/16 00:19:28;;;;;;;0.77;0.20;;;;;;;8.54;67.68;101430.19;5112683;28;20093;-65
2022/11/16 00:21:55;;;;;;;0.20;0.10;;;;;;;8.41;66.98;101444.13;5110659;28;20480;-80
2022/11/16 00:24:22;;;;;;;0.80;0.20;;;;;;;8.52;67.72;101435.75;5103469;28;20028;-65
2022/11/16 00:26:48;;;;;;;0.88;0.20;;;;;;;8.57;66.80;101435.22;5117835;28;20089;-65
2022/11/16 00:29:16;;;;;;;0.70;0.10;;;;;;;8.69;66.09;101433.88;5090074;28;20031;-65
2022/11/16 00:31:43;;;;;;;0.63;0.22;;;;;;;8.62;67.14;101435.56;5111375;28;20036;-65
2022/11/16 00:34:09;;;;;;;0.32;0.10;;;;;;;8.48;66.28;101439.78;5116177;28;20044;-66
2022/11/16 00:36:34;;;;;;;0.43;0.10;;;;;;;8.64;66.73;101428.16;5104424;28;20078;-68
2022/11/16 00:38:59;;;;;;;1.05;0.20;;;;;;;8.61;65.94;101433.88;5098573;28;20091;-66
2022/11/16 00:41:25;;;;;;;0.85;0.10;;;;;;;8.40;66.11;101429.06;5091600;28;20033;-65
2022/11/16 00:43:50;;;;;;;0.90;0.10;;;;;;;8.67;66.59;101430.50;5071031;28;20028;-65
2022/11/16 00:46:15;;;;;;;0.73;0.10;;;;;;;8.57;66.91;101435.22;5112611;28;20031;-65
2022/11/16 00:48:41;;;;;;;0.77;0.10;;;;;;;8.42;66.84;101430.56;5087018;28;20042;-65
2022/11/16 00:51:06;;;;;;;0.80;0.10;;;;;;;8.50;66.79;101408.25;5116545;28;20050;-66
2022/11/16 00:53:32;;;;;;;0.95;0.17;;;;;;;8.37;67.46;101427.50;5092031;28;20027;-65
2022/11/16 00:55:57;;;;;;;0.20;0.00;;;;;;;8.52;67.32;101438.44;5107762;28;20031;-65
2022/11/16 00:58:23;;;;;;;1.23;0.28;;;;;;;8.53;67.27;101436.59;5118223;28;20024;-65
2022/11/16 01:00:49;;;;;;;1.08;0.15;;;;;;;8.55;66.84;101431.91;5085369;28;20027;-65
2022/11/16 01:03:14;;;;;;;0.47;0.10;;;;;;;8.46;66.95;101420.34;5093722;28;20058;-65
2022/11/16 01:05:40;;;;;;;0.60;0.10;;;;;;;8.72;66.98;101438.06;5092227;28;20513;-65
2022/11/16 01:08:06;;;;;;;1.65;0.10;;;;;;;8.55;67.51;101448.00;5114031;28;20047;-65
2022/11/16 01:10:31;;;;;;;0.70;0.10;;;;;;;8.43;68.24;101413.47;5104689;28;20032;-65
2022/11/16 01:12:57;;;;;;;0.38;0.10;;;;;;;8.75;67.17;101443.09;5116561;28;20062;-65
2022/11/16 01:15:25;;;;;;;0.68;0.10;;;;;;;8.85;67.15;101444.56;5090752;28;20043;-65
2022/11/16 01:17:52;;;;;;;0.85;0.10;;;;;;;8.57;66.82;101408.41;5091232;28;20028;-65
2022/11/16 01:20:19;;;;;;;0.10;0.08;;;;;;;8.97;67.12;101450.38;5103703;28;20451;-67
2022/11/16 01:22:45;;;;;;;0.30;0.15;;;;;;;8.87;67.41;101433.66;5117345;28;20027;-69
2022/11/16 01:25:12;;;;;;;0.50;0.00;;;;;;;9.14;66.51;101446.66;5088049;28;20095;-69
2022/11/16 01:27:40;;;;;;;1.27;0.10;;;;;;;8.87;67.39;101441.69;5110320;28;20063;-65
2022/11/16 01:30:08;;;;;;;0.45;0.10;;;;;;;8.87;67.47;101445.25;5079258;28;20035;-64
2022/11/16 01:32:34;;;;;;;0.30;0.10;;;;;;;8.98;67.42;101449.41;5085792;28;20035;-65
2022/11/16 01:35:00;;;;;;;0.32;0.00;;;;;;;8.79;67.68;101445.25;5102801;28;20038;-65
2022/11/16 01:37:26;;;;;;;1.75;0.25;;;;;;;8.57;68.43;101452.16;5112227;28;20028;-66
2022/11/16 01:39:51;;;;;;;0.40;0.17;;;;;;;8.84;66.51;101425.94;5093707;28;20028;-65
2022/11/16 01:42:24;;;;;;;0.20;0.00;;;;;;;9.02;67.06;101433.78;5070246;28;20065;-67
2022/11/16 01:44:57;;;;;;;0.60;0.10;;;;;;;8.81;66.64;101429.81;5116922;28;20387;-65
2022/11/16 01:47:22;;;;;;;0.10;0.10;;;;;;;8.82;67.66;101452.13;5089402;28;20039;-65
2022/11/16 01:49:53;;;;;;;0.65;0.10;;;;;;;8.85;67.02;101411.53;5109531;28;20074;-65
2022/11/16 01:52:23;;;;;;;0.60;0.10;;;;;;;8.83;67.78;101454.63;5097076;28;20024;-65
2022/11/16 01:54:52;;;;;;;0.43;0.00;;;;;;;8.89;67.78;101445.88;5102701;28;20039;-65
2022/11/16 01:57:22;;;;;;;0.73;0.10;;;;;;;8.54;68.48;101439.09;5099813;28;20054;-65
2022/11/16 01:59:52;;;;;;;0.38;0.10;;;;;;;8.58;68.12;101426.19;5108643;28;20038;-65
2022/11/16 02:02:17;;;;;;;0.47;0.10;;;;;;;8.90;67.82;101452.09;5115138;28;20052;-65
2022/11/16 02:04:45;;;;;;;0.47;0.08;;;;;;;8.51;68.38;101395.69;5084729;28;20066;-65
2022/11/16 02:09:52;;;;;;;0.40;0.20;;;;;;;8.97;67.97;101445.00;5095110;28;20099;-65
2022/11/16 02:10:40;;;;;;;0.30;0.00;;;;;;;8.46;69.58;101410.44;5110508;28;20041;-65
2022/11/16 02:13:48;;;;;;;0.20;0.05;;;;;;;8.70;69.14;101447.09;5092574;28;20031;-65
2022/11/16 02:16:19;;;;;;;0.25;0.13;;;;;;;8.81;68.99;101431.69;5039369;28;20078;-65
2022/11/16 02:18:51;;;;;;;0.20;0.10;;;;;;;8.87;69.15;101439.88;5116491;28;20474;-65
2022/11/16 02:21:19;;;;;;;0.95;0.10;;;;;;;8.87;68.79;101447.06;5106263;28;20069;-65
2022/11/16 02:23:44;;;;;;;0.30;0.10;;;;;;;8.98;69.00;101440.50;5090447;28;20058;-65
2022/11/16 02:26:24;;;;;;;1.27;0.20;;;;;;;8.97;67.44;101430.75;5112776;28;20024;-66
2022/11/16 02:29:02;;;;;;;0.40;0.10;;;;;;;8.70;68.64;101438.22;5084143;28;20080;-65
2022/11/16 02:31:34;;;;;;;0.43;0.10;;;;;;;8.62;69.55;101435.56;5111268;28;20034;-66
2022/11/16 02:34:00;;;;;;;0.35;0.10;;;;;;;8.86;68.34;101416.72;5106698;28;20036;-65
2022/11/16 02:36:26;;;;;;;1.35;0.10;;;;;;;8.86;68.01;101426.63;5080855;28;20485;-65
2022/11/16 02:39:06;;;;;;;1.17;0.10;;;;;;;8.64;68.12;101428.16;5102170;28;20031;-65
2022/11/16 02:41:36;;;;;;;1.33;0.10;;;;;;;8.88;68.64;101420.06;5095903;28;20400;-65
2022/11/16 02:44:09;;;;;;;0.77;0.10;;;;;;;8.82;68.39;101422.59;5106165;28;20394;-66
2022/11/16 02:46:38;;;;;;;0.47;0.10;;;;;;;8.95;67.53;101412.16;5097661;28;20031;-65
2022/11/16 02:49:09;;;;;;;1.15;0.20;;;;;;;9.05;67.09;101409.28;5085419;28;20084;-65
2022/11/16 02:51:37;;;;;;;0.65;0.10;;;;;;;9.11;67.08;101414.78;5109858;28;20036;-69
2022/11/16 02:54:19;;;;;;;0.05;0.00;;;;;;;8.78;67.02;101415.91;5112459;28;20054;-66
2022/11/16 02:57:03;;;;;;;0.00;0.00;;;;;;;8.87;67.45;101415.72;5102298;28;20427;-66
2022/11/16 02:59:41;;;;;;;0.85;0.13;;;;;;;8.97;67.69;101415.50;5110627;28;20036;-66
2022/11/16 03:02:35;;;;;;;0.25;0.10;;;;;;;8.74;68.96;101417.25;5112426;28;20062;-66
2022/11/16 03:05:06;;;;;;;1.00;0.17;;;;;;;8.74;68.98;101411.88;5087724;28;20034;-70
2022/11/16 03:07:55;;;;;;;0.50;0.10;;;;;;;9.07;67.12;101401.88;5098338;28;20031;-66
2022/11/16 03:13:09;;;;;;;0.63;0.20;;;;;;;9.08;68.31;101400.88;5058427;28;20055;-66
2022/11/16 03:15:37;;;;;;;1.17;0.20;;;;;;;8.91;68.82;101402.78;5065266;28;20044;-66
2022/11/16 03:18:05;;;;;;;0.40;0.10;;;;;;;8.82;68.81;101404.66;5063800;28;20041;-66
2022/11/16 03:20:33;;;;;;;0.68;0.10;;;;;;;8.62;69.39;101403.38;5072616;28;20074;-66
2022/11/16 03:23:09;;;;;;;0.85;0.10;;;;;;;8.75;68.54;101389.44;5059651;28;20431;-66
2022/11/16 03:25:45;;;;;;;0.38;0.13;;;;;;;8.92;68.50;101391.03;5049295;28;20043;-66
2022/11/16 03:28:26;;;;;;;0.65;0.10;;;;;;;8.86;68.54;101397.09;5070227;28;20044;-66
2022/11/16 03:30:57;;;;;;;0.65;0.10;;;;;;;8.63;70.31;101391.63;5058880;28;20074;-66
2022/11/16 03:33:35;;;;;;;0.20;0.10;;;;;;;8.61;68.98;101377.53;5068660;28;20040;-65
2022/11/16 03:36:10;;;;;;;0.28;0.10;;;;;;;8.63;70.20;101388.94;5052260;28;20055;-66
2022/11/16 03:38:39;;;;;;;1.05;0.13;;;;;;;8.81;69.41;101381.53;5043008;28;20525;-66
2022/11/16 03:41:07;;;;;;;0.30;0.15;;;;;;;8.87;69.55;101388.03;5087984;28;20035;-66
2022/11/16 03:43:34;;;;;;;0.30;0.10;;;;;;;9.05;68.41;101385.13;5107871;28;20065;-66
2022/11/16 03:46:00;;;;;;;1.42;0.10;;;;;;;9.04;69.05;101391.47;5092386;28;20057;-66
2022/11/16 03:48:33;;;;;;;0.50;0.28;;;;;;;8.80;70.03;101382.50;5099990;28;20031;-65
2022/11/16 03:50:58;;;;;;;0.88;0.13;;;;;;;8.68;70.58;101384.75;5071868;28;20027;-66
2022/11/16 03:53:24;;;;;;;0.52;0.17;;;;;;;8.67;70.19;101392.94;5096825;28;20034;-65
2022/11/16 03:55:49;;;;;;;0.50;0.05;;;;;;;8.39;72.41;101389.84;5088524;28;20032;-66
2022/11/16 03:58:17;;;;;;;0.63;0.17;;;;;;;8.55;71.20;101388.97;5089850;28;20032;-65
2022/11/16 04:00:43;;;;;;;0.45;0.20;;;;;;;8.32;71.68;101354.81;5119271;28;20023;-66
2022/11/16 04:03:08;;;;;;;1.08;0.17;;;;;;;8.59;70.62;101379.56;5072883;28;20088;-69
2022/11/16 04:24:57;;;;;;;0.50;0.20;;;;;;;8.37;71.69;101348.91;5105577;28;20104;-66
2022/11/16 04:30:14;;;;;;;2.15;0.50;;;;;;;8.16;73.68;101371.75;5115452;28;20047;-65
2022/11/16 04:38:10;;;;;;;0.45;0.20;;;;;;;8.34;73.49;101387.63;5099367;28;20176;-65
2022/11/16 04:40:35;;;;;;;0.20;0.10;;;;;;;8.43;73.31;101383.97;5103986;28;20036;-65
2022/11/16 04:43:02;;;;;;;0.88;0.20;;;;;;;8.31;74.04;101390.69;5071512;28;20049;-65
2022/11/16 04:48:14;;;;;;;0.73;0.20;;;;;;;8.20;75.68;101375.75;5115391;28;20108;-65
2022/11/16 04:50:40;;;;;;;0.52;0.10;;;;;;;8.21;75.71;101376.59;5086272;28;20387;-64
2022/11/16 04:53:07;;;;;;;0.70;0.22;;;;;;;8.25;75.07;101383.31;5097914;28;20081;-65
2022/11/16 04:55:33;;;;;;;0.68;0.10;;;;;;;8.15;75.95;101378.13;5072791;28;20058;-65
2022/11/16 04:57:59;;;;;;;0.50;0.10;;;;;;;8.36;74.71;101371.38;5087512;28;20023;-65
2022/11/16 05:00:25;;;;;;;1.60;0.20;;;;;;;8.24;75.37;101376.25;5087343;28;20422;-65
2022/11/16 05:02:51;;;;;;;0.60;0.17;;;;;;;8.61;73.63;101386.44;5082071;28;20041;-65
2022/11/16 05:05:17;;;;;;;2.25;0.30;;;;;;;8.65;74.15;101378.91;5114427;28;20035;-65
2022/11/16 05:07:42;;;;;;;0.73;0.20;;;;;;;8.33;74.20;101388.66;5092015;28;20557;-66
2022/11/16 05:10:08;;;;;;;1.58;0.30;;;;;;;8.56;74.18;101375.38;5071958;28;20060;-65
2022/11/16 05:12:33;;;;;;;0.57;0.20;;;;;;;8.53;74.17;101377.56;5116782;28;20035;-64
2022/11/16 05:14:59;;;;;;;0.82;0.15;;;;;;;8.43;73.45;101343.72;5086192;28;20504;-65
2022/11/16 05:17:26;;;;;;;2.85;0.20;;;;;;;8.59;74.25;101374.22;5095768;28;20040;-65
2022/11/16 05:22:36;;;;;;;1.70;0.20;;;;;;;8.41;74.63;101380.63;5104020;28;20023;-64
2022/11/16 05:25:01;;;;;;;0.55;0.13;;;;;;;8.75;74.14;101387.56;5117652;28;20028;-65
2022/11/16 05:27:28;;;;;;;1.00;0.20;;;;;;;8.23;74.67;101355.81;5108332;28;20469;-65
2022/11/16 05:29:57;;;;;;;0.50;0.17;;;;;;;8.43;74.53;101380.44;5090895;28;20028;-65
2022/11/16 05:32:23;;;;;;;0.40;0.10;;;;;;;8.26;74.95;101366.19;5097201;28;20046;-67
2022/11/16 05:34:49;;;;;;;0.95;0.30;;;;;;;8.47;74.42;101379.94;5103939;28;20087;-65
2022/11/16 05:37:16;;;;;;;0.20;0.20;;;;;;;8.42;74.95;101370.75;5114622;28;20052;-64
2022/11/16 05:39:42;;;;;;;2.65;0.20;;;;;;;8.45;74.55;101386.50;5091175;28;20032;-64
2022/11/16 05:42:08;;;;;;;2.38;0.13;;;;;;;8.61;74.59;101385.59;5107225;28;20043;-65
2022/11/16 05:44:34;;;;;;;1.08;0.10;;;;;;;8.43;75.10;101383.13;5116836;28;20027;-67
2022/11/16 05:46:59;;;;;;;1.52;0.20;;;;;;;8.22;76.08;101380.97;5084948;28;20034;-65
2022/11/16 05:49:25;;;;;;;0.85;0.10;;;;;;;8.38;75.71;101389.03;5113296;28;20031;-64
2022/11/16 05:51:51;;;;;;;1.95;0.20;;;;;;;8.27;75.85;101373.22;5109963;28;20039;-65
2022/11/16 05:54:19;;;;;;;0.60;0.20;;;;;;;8.42;75.51;101373.41;5105058;28;20103;-65
2022/11/16 05:56:45;;;;;;;0.73;0.20;;;;;;;8.32;74.91;101368.22;5116649;28;20046;-65
2022/11/16 05:59:15;;;;;;;1.33;0.13;;;;;;;8.16;75.09;101339.56;5087057;28;20039;-65
2022/11/16 06:01:41;;;;;;;1.15;0.20;;;;;;;8.63;73.54;101387.09;5111063;28;20398;-63
2022/11/16 06:04:06;;;;;;;1.65;0.20;;;;;;;8.61;73.71;101380.22;5113410;28;20027;-64
2022/11/16 06:06:32;;;;;;;0.25;0.10;;;;;;;8.32;74.48;101378.94;5103441;28;20029;-64
2022/11/16 06:08:58;;;;;;;1.83;0.20;;;;;;;8.60;73.58;101391.97;5115789;28;20023;-66
2022/11/16 06:11:23;;;;;;;0.40;0.10;;;;;;;8.57;73.65;101387.78;5105968;28;20035;-63
2022/11/16 06:13:49;;;;;;;1.13;0.13;;;;;;;8.50;74.10;101394.00;5108942;28;20028;-64
2022/11/16 06:16:14;;;;;;;2.03;0.20;;;;;;;8.62;73.75;101395.34;5095859;28;20043;-63
2022/11/16 06:18:42;;;;;;;1.60;0.22;;;;;;;8.73;73.06;101397.63;5102712;28;20030;-64
2022/11/16 06:21:08;;;;;;;0.75;0.20;;;;;;;8.38;74.55;101382.81;5114945;28;20069;-63
2022/11/16 06:23:34;;;;;;;1.08;0.10;;;;;;;8.13;75.25;101390.84;5106809;28;20051;-64
2022/11/16 06:26:00;;;;;;;0.45;0.10;;;;;;;8.44;73.74;101396.38;5106844;28;20036;-64
2022/11/16 06:28:26;;;;;;;2.38;1.98;;;;;;;8.37;72.08;101387.28;5096498;28;20043;-64
2022/11/16 06:30:51;;;;;;;3.53;2.42;;;;;;;8.66;71.73;101380.56;5102126;28;20035;-65
2022/11/16 06:33:17;;;;;;;12.57;6.65;;;;;;;8.87;70.99;101388.03;5096005;28;20520;-64
2022/11/16 06:35:43;;;;;;;4.18;2.70;;;;;;;8.59;72.33;101393.81;5098639;28;20039;-64
2022/11/16 06:38:09;;;;;;;3.22;2.65;;;;;;;8.67;71.35;101377.69;5094363;28;20027;-64
2022/11/16 06:40:36;;;;;;;1.95;0.95;;;;;;;8.82;70.89;101385.88;5102187;28;20028;-63
2022/11/16 06:43:01;;;;;;;4.55;2.78;;;;;;;8.69;71.72;101391.78;5097248;28;20032;-64
2022/11/16 06:45:26;;;;;;;5.53;5.03;;;;;;;8.83;70.95;101395.59;5088263;28;20054;-63
2022/11/16 06:47:52;;;;;;;2.50;0.70;;;;;;;8.73;70.84;101380.72;5089763;28;20024;-64
2022/11/16 06:50:18;;;;;;;1.00;0.30;;;;;;;8.61;71.34;101391.81;5112901;28;20524;-65
2022/11/16 06:52:48;;;;;;;1.15;0.40;;;;;;;8.60;70.78;101375.88;5101686;28;20039;-64
2022/11/16 06:55:15;;;;;;;13.45;5.72;;;;;;;8.52;72.26;101375.91;5095137;28;20035;-66
2022/11/16 06:57:43;;;;;;;1.20;0.40;;;;;;;8.43;72.94;101381.28;5089182;28;20034;-63
2022/11/16 07:00:10;;;;;;;0.70;0.28;;;;;;;8.75;71.74;101384.91;5066758;28;20082;-64
2022/11/16 07:02:36;;;;;;;0.88;0.45;;;;;;;8.55;72.02;101384.44;5109938;28;20074;-64
2022/11/16 07:05:03;;;;;;;1.75;0.88;;;;;;;8.86;70.96;101394.41;5102255;28;20024;-64
2022/11/16 07:07:28;;;;;;;2.47;0.70;;;;;;;8.68;70.95;101365.13;5110680;28;20097;-64
2022/11/16 07:09:53;;;;;;;2.95;1.60;;;;;;;8.58;71.63;101388.66;5090969;28;20028;-64
2022/11/16 07:12:19;;;;;;;5.68;3.15;;;;;;;8.81;71.75;101389.56;5085659;28;20028;-64
2022/11/16 07:14:44;;;;;;;2.45;0.50;;;;;;;8.78;71.15;101387.25;5096812;28;20035;-64
2022/11/16 07:17:09;;;;;;;0.65;0.30;;;;;;;8.38;72.88;101377.47;5103486;28;20036;-64
2022/11/16 07:19:35;;;;;;;1.95;0.70;;;;;;;8.64;72.41;101382.56;5116199;28;20035;-64
2022/11/16 07:22:00;;;;;;;1.17;0.90;;;;;;;8.84;71.94;101381.19;5099431;28;20043;-65
2022/11/16 07:24:26;;;;;;;1.38;1.17;;;;;;;8.57;72.70;101393.16;5091952;28;20036;-64
2022/11/16 07:26:51;;;;;;;4.00;0.70;;;;;;;8.81;72.08;101384.22;5122439;28;20042;-65
2022/11/16 07:29:17;;;;;;;2.80;0.70;;;;;;;8.74;71.46;101382.38;5111522;28;20044;-63
2022/11/16 07:31:42;;;;;;;2.53;0.68;;;;;;;8.85;71.52;101388.22;5116277;28;20100;-63
2022/11/16 07:34:07;;;;;;;2.75;0.30;;;;;;;8.92;71.42;101374.94;5118403;28;20035;-63
2022/11/16 07:36:33;;;;;;;0.93;0.35;;;;;;;8.82;72.31;101377.81;5074734;28;20032;-63
2022/11/16 07:38:58;;;;;;;1.38;0.40;;;;;;;8.79;72.22;101382.69;5121650;28;20363;-66
2022/11/16 07:41:23;;;;;;;1.30;0.60;;;;;;;9.09;71.66;101386.44;5116295;28;20023;-75
2022/11/16 07:43:49;;;;;;;2.65;0.40;;;;;;;8.83;71.27;101376.81;5104899;28;20035;-81
2022/11/16 07:46:17;;;;;;;0.75;0.20;;;;;;;9.05;70.86;101387.81;5121404;28;20108;-66
2022/11/16 07:48:43;;;;;;;3.90;0.30;;;;;;;8.89;71.54;101384.16;5107646;28;20028;-64
2022/11/16 07:51:11;;;;;;;0.85;0.40;;;;;;;8.98;71.17;101397.56;5114110;28;20028;-64
2022/11/16 07:53:37;;;;;;;1.23;0.40;;;;;;;8.99;70.70;101392.00;5090627;28;20498;-64
2022/11/16 07:56:04;;;;;;;0.63;0.25;;;;;;;8.64;71.62;101390.63;5110443;28;20063;-66
2022/11/16 07:58:34;;;;;;;1.67;0.65;;;;;;;8.91;70.39;101390.19;5116854;28;20504;-74
2022/11/16 08:01:10;;;;;;;4.28;0.35;;;;;;;9.10;70.79;101393.47;5104442;28;20032;-64
2022/11/16 08:03:36;;;;;;;1.85;0.30;;;;;;;9.16;70.24;101390.91;5095774;28;20559;-65
2022/11/16 08:06:04;;;;;;;1.55;0.30;;;;;;;8.88;69.57;101387.88;5116507;28;20055;-68
2022/11/16 08:08:30;;;;;;;0.50;0.25;;;;;;;9.18;69.65;101396.13;5090827;28;20050;-64
2022/11/16 08:10:59;;;;;;;3.30;0.45;;;;;;;9.18;69.47;101393.44;5122209;28;20560;-64
2022/11/16 08:13:24;;;;;;;1.88;0.38;;;;;;;9.25;69.53;101398.94;5114267;28;20026;-63
2022/11/16 08:15:50;;;;;;;1.75;0.28;;;;;;;8.93;70.65;101398.91;5081297;28;20032;-63
2022/11/16 08:18:15;;;;;;;1.38;0.25;;;;;;;8.94;69.01;101389.03;5107647;28;20040;-64
2022/11/16 08:20:40;;;;;;;2.20;0.38;;;;;;;9.19;69.57;101400.47;5103665;28;20043;-64
2022/11/16 08:23:06;;;;;;;0.98;0.43;;;;;;;9.10;69.73;101391.63;5107797;28;20019;-64
2022/11/16 08:25:31;;;;;;;1.05;0.30;;;;;;;9.28;68.54;101382.47;5070381;28;20028;-64
2022/11/16 08:27:56;;;;;;;1.77;0.75;;;;;;;9.36;68.62;101403.91;5087091;28;20032;-66
2022/11/16 08:30:22;;;;;;;1.48;0.70;;;;;;;9.16;69.71;101398.97;5115825;28;20286;-68
2022/11/16 08:32:47;;;;;;;1.42;1.33;;;;;;;9.11;69.59;101390.63;5104620;28;20039;-64
2022/11/16 08:35:13;;;;;;;0.80;0.30;;;;;;;9.18;70.40;101396.13;5116873;28;20051;-63
2022/11/16 08:37:38;;;;;;;3.30;0.70;;;;;;;9.27;69.29;101392.41;5110326;28;20034;-64
2022/11/16 08:40:04;;;;;;;3.05;1.10;;;;;;;9.08;69.97;101400.88;5108987;28;20032;-64
2022/11/16 08:42:29;;;;;;;3.00;1.92;;;;;;;9.06;69.44;101394.84;5099107;28;20027;-64
2022/11/16 08:44:55;;;;;;;2.30;0.40;;;;;;;9.11;69.93;101395.16;5086052;28;20036;-65
2022/11/16 08:47:20;;;;;;;3.72;3.05;;;;;;;8.68;71.32;101363.28;5114859;28;20498;-64
2022/11/16 08:49:45;;;;;;;0.82;0.70;;;;;;;9.21;69.46;101385.03;5092279;28;20060;-68
2022/11/16 08:52:11;;;;;;;7.53;6.72;;;;;;;9.21;69.23;101374.28;5089734;28;20073;-64
2022/11/16 08:54:36;;;;;;;6.35;4.03;;;;;;;9.03;70.01;101390.66;5099617;28;20112;-65
2022/11/16 08:57:02;;;;;;;5.38;3.65;;;;;;;9.27;68.45;101381.66;5086015;28;20020;-65
2022/11/16 08:59:27;;;;;;;8.82;5.22;;;;;;;8.93;68.23;101382.78;5096603;28;20085;-66
2022/11/16 09:01:52;;;;;;;0.90;0.63;;;;;;;9.18;68.59;101382.69;5110856;28;20096;-64
2022/11/16 09:04:18;;;;;;;2.55;1.05;;;;;;;9.28;68.90;101375.25;5106820;28;20036;-64
2022/11/16 09:06:44;;;;;;;2.05;0.70;;;;;;;9.53;67.84;101375.09;5118134;28;20556;-64
2022/11/16 09:09:10;;;;;;;1.50;0.93;;;;;;;9.05;69.87;101380.56;5104912;28;20055;-64
2022/11/16 09:11:36;;;;;;;1.15;0.80;;;;;;;9.29;69.55;101371.56;5112702;28;20055;-67
2022/11/16 09:14:01;;;;;;;0.70;0.30;;;;;;;8.99;71.22;101369.69;5093944;28;20058;-65
2022/11/16 09:16:27;;;;;;;3.80;2.90;;;;;;;9.01;70.91;101346.22;5105630;28;20040;-64
2022/11/16 09:18:53;;;;;;;4.30;2.90;;;;;;;9.07;70.16;101378.56;5107791;28;20035;-64
2022/11/16 09:21:21;;;;;;;2.63;1.42;;;;;;;8.86;71.12;101373.78;5114586;28;20320;-64
2022/11/16 09:23:47;;;;;;;7.90;3.50;;;;;;;9.30;70.30;101367.84;5109632;28;20520;-65
2022/11/16 09:26:13;;;;;;;2.47;1.95;;;;;;;9.43;69.15;101371.81;5088320;28;20391;-65
2022/11/16 09:28:39;;;;;;;2.45;0.73;;;;;;;9.23;69.39;101366.06;5116670;28;20028;-67
2022/11/16 09:31:05;;;;;;;3.00;2.03;;;;;;;9.61;68.32;101378.56;5104126;28;20024;-64
2022/11/16 09:33:31;;;;;;;6.05;1.90;;;;;;;9.32;69.49;101365.00;5113536;28;20486;-65
2022/11/16 09:36:01;;;;;;;2.45;1.90;;;;;;;9.47;69.53;101367.75;5112441;28;20042;-65
2022/11/16 09:38:26;;;;;;;1.30;1.10;;;;;;;9.04;71.32;101362.81;5068425;28;20033;-64
2022/11/16 09:40:52;;;;;;;5.97;3.10;;;;;;;9.14;70.11;101373.34;5116381;28;20062;-72
2022/11/16 09:43:40;;;;;;;6.82;4.55;;;;;;;9.57;69.03;101374.56;5112498;28;20054;-70
2022/11/16 09:46:32;;;;;;;4.78;2.55;;;;;;;9.27;69.18;101375.41;5109626;28;20028;-68
2022/11/16 09:49:01;;;;;;;6.57;4.55;;;;;;;9.48;68.63;101374.81;5090480;28;20402;-64
2022/11/16 09:51:31;;;;;;;5.45;1.75;;;;;;;9.42;69.46;101357.53;5108363;28;20375;-64
2022/11/16 09:53:56;;;;;;;2.10;1.30;;;;;;;9.23;71.16;101374.94;5110723;28;20096;-64
2022/11/16 09:56:24;;;;;;;0.93;0.38;;;;;;;9.04;70.92;101353.88;5087882;28;20537;-65
2022/11/16 09:59:04;;;;;;;1.08;0.20;;;;;;;9.53;70.50;101378.63;5115567;28;20035;-64
2022/11/16 10:01:41;;;;;;;1.08;0.20;;;;;;;9.41;70.04;101374.69;5089835;28;20034;-65
2022/11/16 10:04:21;;;;;;;0.60;0.32;;;;;;;9.41;70.18;101372.00;5091124;28;20032;-64
2022/11/16 10:06:59;;;;;;;0.40;0.10;;;;;;;9.56;70.27;101372.06;5117451;28;20027;-64
2022/11/16 10:09:26;;;;;;;0.52;0.20;;;;;;;9.78;68.96;101370.41;5108033;28;20081;-64
2022/11/16 10:12:14;;;;;;;1.88;0.40;;;;;;;9.63;68.63;101357.75;5111394;28;20032;-64
2022/11/16 10:15:03;;;;;;;0.75;0.10;;;;;;;9.67;67.66;101370.78;5057056;28;20088;-64
2022/11/16 10:17:44;;;;;;;1.92;0.43;;;;;;;9.41;68.53;101359.41;5044400;28;20033;-64
2022/11/16 10:20:09;;;;;;;0.52;0.10;;;;;;;9.40;69.74;101344.31;5057218;28;20033;-64
2022/11/16 10:23:18;;;;;;;1.83;0.28;;;;;;;9.93;67.44;101355.13;5057622;28;20029;-66
2022/11/16 10:25:46;;;;;;;0.73;0.25;;;;;;;9.72;66.37;101350.44;5045724;28;20073;-64
2022/11/16 10:28:37;;;;;;;0.60;0.20;;;;;;;9.64;66.42;101351.34;5057734;28;20041;-65
2022/11/16 10:31:27;;;;;;;1.40;0.30;;;;;;;9.84;67.17;101357.06;5057050;28;20021;-65
2022/11/16 10:33:55;;;;;;;1.65;0.30;;;;;;;10.10;66.00;101353.16;5058297;28;20461;-65
2022/11/16 10:36:26;;;;;;;1.15;0.22;;;;;;;10.12;65.95;101351.09;5057654;28;20029;-65
2022/11/16 10:38:57;;;;;;;1.38;0.20;;;;;;;10.12;66.39;101361.84;5057085;28;20059;-64
2022/11/16 10:41:29;;;;;;;0.57;0.20;;;;;;;10.02;65.46;101353.22;5057123;28;20045;-63
2022/11/16 10:43:57;;;;;;;1.02;0.20;;;;;;;9.84;66.48;101354.38;5056231;28;20075;-65
2022/11/16 10:46:41;;;;;;;0.65;0.20;;;;;;;9.89;65.07;101319.72;5087501;28;20043;-64
2022/11/16 10:49:15;;;;;;;0.98;0.20;;;;;;;9.77;65.55;101347.22;5085799;28;20026;-65
2022/11/16 10:51:42;;;;;;;1.75;0.30;;;;;;;9.70;66.04;101344.44;5110961;28;20020;-64
2022/11/16 10:54:15;;;;;;;0.32;0.20;;;;;;;9.76;64.74;101340.16;5110383;28;20115;-63
2022/11/16 10:56:48;;;;;;;3.70;0.50;;;;;;;9.57;64.74;101358.47;5102608;28;20473;-64
2022/11/16 10:59:17;;;;;;;0.88;0.20;;;;;;;9.69;64.46;101355.34;5088323;28;20028;-64
2022/11/16 11:01:56;;;;;;;0.85;0.32;;;;;;;10.15;63.54;101350.72;5111643;28;20031;-64
2022/11/16 11:04:23;;;;;;;0.68;0.32;;;;;;;9.94;63.67;101353.31;5113392;28;20034;-65
2022/11/16 11:06:59;;;;;;;0.40;0.20;;;;;;;9.95;63.08;101354.97;5103035;28;20028;-63
2022/11/16 11:09:37;;;;;;;1.38;0.20;;;;;;;9.65;63.48;101353.00;5105845;28;20035;-64
2022/11/16 11:15:11;;;;;;;2.38;0.22;;;;;;;10.09;62.37;101329.94;5088001;28;20069;-63
2022/11/16 11:17:47;;;;;;;3.30;0.30;;;;;;;10.24;61.42;101355.03;5112533;28;20054;-63
2022/11/16 11:20:15;;;;;;;1.10;0.20;;;;;;;10.24;61.34;101340.75;5112789;28;20028;-64
2022/11/16 11:22:41;;;;;;;2.20;0.40;;;;;;;10.35;61.95;101345.69;5102425;28;20083;-64
2022/11/16 11:25:33;;;;;;;2.08;0.28;;;;;;;10.02;62.28;101324.47;5084108;28;20019;-64
2022/11/16 11:28:26;;;;;;;2.30;0.28;;;;;;;10.01;62.50;101344.31;5108294;28;20031;-64
2022/11/16 11:31:00;;;;;;;1.13;0.20;;;;;;;9.95;62.38;101328.06;5089041;28;20096;-64
2022/11/16 11:33:32;;;;;;;0.93;0.20;;;;;;;9.94;62.70;101304.91;5098859;28;20121;-73
2022/11/16 11:36:23;;;;;;;0.80;0.22;;;;;;;9.87;61.95;101331.69;5099991;28;20028;-64
2022/11/16 11:39:04;;;;;;;2.00;0.30;;;;;;;9.99;61.47;101322.16;5114979;28;20038;-63
2022/11/16 11:41:41;;;;;;;1.95;0.10;;;;;;;9.79;61.32;101299.50;5101330;28;20096;-63
2022/11/16 11:44:16;;;;;;;0.70;0.20;;;;;;;10.14;61.12;101327.56;5107332;28;20075;-65
2022/11/16 11:46:49;;;;;;;0.80;0.20;;;;;;;9.58;62.42;101310.94;5114691;28;20092;-63
2022/11/16 11:49:33;;;;;;;1.05;0.20;;;;;;;9.82;61.56;101328.69;5087087;28;20032;-64
2022/11/16 11:52:08;;;;;;;0.68;0.10;;;;;;;9.64;61.94;101296.78;5103812;28;20036;-64
2022/11/16 11:55:03;;;;;;;2.15;0.30;;;;;;;9.68;61.48;101324.94;5095795;28;20051;-65
2022/11/16 11:57:32;;;;;;;6.60;0.30;;;;;;;9.75;61.08;101296.34;5035837;28;20120;-65
2022/11/16 11:59:57;;;;;;;0.90;0.40;;;;;;;9.80;61.48;101341.47;5006609;28;20120;-65
2022/11/16 12:02:51;;;;;;;0.70;0.30;;;;;;;10.06;60.27;101325.78;5047831;28;20569;-64
2022/11/16 12:05:22;;;;;;;3.17;0.50;;;;;;;10.06;60.19;101327.63;5057158;28;20112;-64
2022/11/16 12:08:25;;;;;;;1.13;0.38;;;;;;;9.86;59.91;101341.56;5058868;28;20051;-63
2022/11/16 12:11:10;;;;;;;1.08;0.22;;;;;;;9.82;59.91;101329.53;5025392;28;20516;-63
2022/11/16 12:14:22;;;;;;;0.20;0.10;;;;;;;9.72;60.51;101334.31;5059915;28;20079;-64
2022/11/16 12:16:54;;;;;;;2.15;0.28;;;;;;;9.65;61.19;101328.00;5011956;28;20072;-64
2022/11/16 12:19:22;;;;;;;2.33;0.30;;;;;;;9.86;60.25;101333.50;5059034;28;20025;-64
2022/11/16 12:21:59;;;;;;;1.60;0.20;;;;;;;9.88;60.03;101336.03;5053374;28;20048;-63
2022/11/16 12:24:25;;;;;;;0.68;0.10;;;;;;;9.73;60.04;101329.78;5029100;28;20034;-65
2022/11/16 12:26:59;;;;;;;1.08;0.15;;;;;;;10.05;59.29;101337.56;5049198;28;20033;-65